Aérodrome :
LOGIN :

S'inscrire | Disclaimer

   EN    FR    IT 

 










Légende :    VFR   VFR Marginal   IFR   IFR Intensif   IFR Très Intensif
Visi : 
Plafond : 
>= 8 km
>= 3000ft
5 à 8 km
1000 à 3000 ft
1500m à 5 km
500 à 1000 ft
800 à 1500m
200 à 500 ft
< 800m
< 200 ft
Symboles :   Orages  Brouillard  Fortes neiges  Fortes précipitations  Vent > 20 kt
SIGMETs :   Divers  Orages  Givrage  Turbulence  Onde Orograph.  Cendres Volcan.







- Altitude de l'aérodrome : 142 ft
- Code IATA : FLR


LIRQ - Firenze Amerigo Vespucci

DERNIER METAR :
  • 222320Z VRB02KT 9999 -RA SCT035 BKN070 02/01 Q1002

METARs EXPIRÉS :
  • 222250Z VRB02KT 9999 SCT035 BKN080 02/01 Q1002
  • 222220Z 16003KT 120V200 9999 -RA SCT035 OVC080 03/02 Q1002
  • 222150Z 14003KT 110V170 9999 -RA BKN035 OVC080 02/01 Q1002
  • 222120Z 11003KT 090V150 9999 -RA BKN035 OVC080 02/02 Q1002
  • 222050Z 13003KT 9999 -DZ BKN035 OVC080 03/01 Q1003

TAF TAF LIRQ
Valide du 23 à 00h jusqu'au 24 à 00h UTC


222300Z 2300/2324 VRB05KT 8000 SCT025 BKN050
TEMPO 2300/2304 3000 RASN
Pas de NOTAMs connus pour ce terrain.



MET'MAP, la Météo Aéronautique d'un coup d'oeil ! - Copyright ORBIFLY Décembre 2007 - Disclaimer

ORBIFLY MET'MAP TEAM :

Programmation & Développement : Alexandra Zaïnal
Conception & Développement : Baudouin d'Aumeries
Co-Programmation & Développement : Marc-Olivier Méhu
Soutien technique & logistique : Manuel Goepfert

Contact : metmap@orbifly.com




SOURCES & CREDITS :

   NOAA